Skip to main content

Terras de Bouro/Barral (CIM)

ID 6212121 · 41.7023, -8.3181 map

Latest reading · 2026-05-09 19:00 (Europe/Lisbon)

Temperature
11.8 °C
Humidity
88 %
Pressure
1,006.7 hPa
Precipitation
5.8 mm
Radiation
Wind speed
7.6 km/h
Wind direction
S · South

24-hour history

Time (Europe/Lisbon) Temp Humidity Pressure Rain Wind Dir
2026-05-09 19:00 11.8 °C 88 % 1,006.7 5.8 mm 7.6 km/h S
2026-05-09 18:00 12.3 °C 92 % 1,006.0 1.0 mm 6.8 km/h SE
2026-05-09 17:00 11.3 °C 93 % 1,006.3 0.4 mm 7.2 km/h SE
2026-05-09 16:00 13.2 °C 80 % 1,005.2 7.5 mm 4.7 km/h SE
2026-05-09 15:00 15.8 °C 68 % 1,004.1 0.6 mm 3.6 km/h S
2026-05-09 14:00 14.3 °C 81 % 1,004.5 0.0 mm 2.9 km/h NW
2026-05-09 13:00 14.4 °C 71 % 1,004.6 0.0 mm 5.4 km/h SW
2026-05-09 12:00 14.3 °C 69 % 1,004.8 0.2 mm 9.0 km/h E
2026-05-09 11:00 15.8 °C 61 % 1,004.4 0.0 mm 13.3 km/h E
2026-05-09 10:00 15.5 °C 63 % 1,004.5 0.0 mm 8.6 km/h E
2026-05-09 09:00 14.8 °C 67 % 1,004.7 0.0 mm 7.2 km/h E
2026-05-09 08:00 13.6 °C 68 % 1,005.0 0.0 mm 6.5 km/h E
2026-05-09 07:00 12.9 °C 67 % 1,005.0 0.0 mm 6.5 km/h E
2026-05-09 06:00 12.9 °C 69 % 1,005.2 0.0 mm 5.4 km/h E
2026-05-09 05:00 13.1 °C 71 % 1,005.5 0.1 mm 5.8 km/h SE
2026-05-09 04:00 12.6 °C 77 % 1,005.7 0.0 mm 5.8 km/h SE
2026-05-09 03:00 12.1 °C 81 % 1,006.3 0.6 mm 4.7 km/h SW
2026-05-09 02:00 14.4 °C 61 % 1,006.1 0.1 mm 5.8 km/h W
2026-05-09 01:00 14.4 °C 60 % 1,006.1 0.0 mm 20.5 km/h E
2026-05-09 00:00 14.0 °C 61 % 1,006.8 0.0 mm 18.4 km/h E
2026-05-08 23:00 13.3 °C 63 % 1,007.7 0.0 mm 9.0 km/h E
2026-05-08 22:00 12.0 °C 73 % 1,008.3 0.0 mm 4.7 km/h E
2026-05-08 21:00 12.6 °C 73 % 1,008.2 0.0 mm 3.6 km/h E
2026-05-08 20:00 14.5 °C 66 % 1,008.3 0.0 mm 3.2 km/h SE